Kezdőlap
METAR-TAF:

METAR-TAF

Repülőterek :

Richmond, Ausztrália

földrajzi szélesség: 33-36S, földrajzi hosszúság: 150-47E, magasság: 21 m

Jelenlegi meteorológiai megfigyelések

A jelentés 17 perccel ezelõtt készült, 22:00 UTC
Szélcsend
Hőmérséklet 7°C
Páratartalom 100%
Légköri nyomás 1025 hPa
Látótávolság: 0300 m
Borult 100 lábon

METAR: YSRI 262200Z AUTO 00000KT 0300 // OVC001 07/07 Q1025 RF00.0/000.0

Idő: 08:17 (22:17 UTC)

Előrejelzés

A jelentés 5 órával és 10 perccel ezelõtt készült, 17:07 UTC
Az előrejelzés 26-én 18 óra UTC és 27-én 18 óra UTC között érvényes
Különbözõ irányokból fújó szél 3 kt
Látótávolság: 0300 m
köd
26-én 23 óra UTC és 27-én 00 óra UTC között fokozatosan kialakuló
Különbözõ irányokból fújó szél 3 kt
Látótávolság 10 km, vagy több
felhőtlen 1500 m magasságban, és nincs gomolyfelhõ

TAF: YSRI 261707Z 2618/2718 VRB03KT 0300 FG NSC BECMG 2623/2700 VRB03KT CAVOK

Meteorológiai megfigyelések és előrejelzések több, mint 4000 repülőtéren (METAR és TAF jelentéseket).

A térképen piros és sárga pontok jelzik az elérhető meteorológiai állomásokat.

Mozgassa az egeret a pont fölött, hogy megjelenjen az állomás neve.

Azután kattintson az időjárási megfigyelések és előrejelzések megtekintéséhez.

A térkép megváltoztatása: kattintson a fekete keresztel jelölt zöld gombra ráközelítéshez, a vonallal jelölt zöld gombra távolításhoz, vagy a zöld nyilakra a szomszédos térképek eléréséhez.


METAR-TAF: